Time;durP1;ratioP1;P1;durP2;ratioP2;P2;SDS_P1;SDS_P2;PMS_P1;PMS_P2;Temp;Humidity;BMP_temperature;BMP_pressure;BME280_temperature;BME280_humidity;BME280_pressure;Samples;Min_cycle;Max_cycle;Signal;HPM_P1;HPM_P2
2021/07/10 06:16:58;;;;;;;;;7.67;6.00;;;;;20.11;58.13;101374.75;5110690;24;45272;-81
2021/07/10 06:19:23;;;;;;;;;7.00;7.00;;;;;20.18;57.94;101381.75;4756376;29;45324;-82
2021/07/10 06:21:49;;;;;;;;;6.33;6.33;;;;;20.21;57.97;101373.72;4774794;29;45444;-82
2021/07/10 06:24:14;;;;;;;;;7.00;7.00;;;;;20.23;57.67;101371.94;4773828;29;45744;-82
2021/07/10 06:26:40;;;;;;;;;7.00;7.00;;;;;20.24;57.32;101378.16;4774466;29;45307;-81
2021/07/10 06:29:05;;;;;;;;;7.00;6.00;;;;;20.24;57.51;101378.16;4774471;29;45272;-81
2021/07/10 06:31:31;;;;;;;;;6.67;6.67;;;;;20.27;57.92;101382.53;4774474;29;45377;-81
2021/07/10 06:33:59;;;;;;;;;7.00;7.00;;;;;20.28;57.22;101381.66;4774336;29;46098;-81
2021/07/10 06:36:25;;;;;;;;;7.00;7.00;;;;;20.29;57.74;101372.72;4774182;29;45261;-82
2021/07/10 06:38:51;;;;;;;;;7.67;6.00;;;;;20.29;57.51;101373.63;4758022;29;45468;-82
2021/07/10 06:41:16;;;;;;;;;8.33;8.33;;;;;20.28;57.79;101366.53;4774429;29;45372;-82
2021/07/10 06:43:42;;;;;;;;;8.33;7.00;;;;;20.28;58.10;101365.66;4774113;29;46471;-82
2021/07/10 06:46:09;;;;;;;;;8.67;6.67;;;;;20.33;58.19;101375.34;4773992;29;45373;-82
2021/07/10 06:48:35;;;;;;;;;10.67;7.33;;;;;20.38;58.41;101367.28;4774036;29;45512;-81
2021/07/10 06:51:00;;;;;;;;;9.00;6.67;;;;;20.41;58.60;101364.56;4774427;29;45354;-82
2021/07/10 06:53:26;;;;;;;;;7.33;7.33;;;;;20.42;58.28;101365.44;4773982;29;46043;-82
2021/07/10 06:55:52;;;;;;;;;7.00;6.00;;;;;20.45;57.84;101360.06;4774016;29;45311;-82
2021/07/10 06:58:18;;;;;;;;;7.00;7.00;;;;;20.47;57.77;101353.78;4774038;29;45177;-82
2021/07/10 07:00:46;;;;;;;;;5.33;5.00;;;;;20.51;57.37;101367.13;4774108;29;45369;-83
2021/07/10 07:03:11;;;;;;;;;7.33;6.00;;;;;20.52;57.66;101361.75;4772891;29;45385;-82
2021/07/10 07:05:37;;;;;;;;;7.00;6.33;;;;;20.51;57.25;101354.66;4773802;29;45299;-82
2021/07/10 07:08:02;;;;;;;;;9.00;7.00;;;;;20.52;57.10;101355.53;4774252;29;45358;-82
2021/07/10 07:10:28;;;;;;;;;4.67;4.67;;;;;20.55;57.04;101363.50;4774120;29;45318;-83
2021/07/10 07:12:54;;;;;;;;;5.00;5.00;;;;;20.56;56.33;101351.91;4773503;29;46138;-83
2021/07/10 07:15:19;;;;;;;;;8.00;6.33;;;;;20.55;57.87;101350.13;4773739;29;45369;-82
2021/07/10 07:17:45;;;;;;;;;5.33;5.00;;;;;20.56;57.98;101352.78;4773493;29;45300;-84
2021/07/10 07:20:13;;;;;;;;;8.67;6.33;;;;;20.58;59.37;101352.78;4773884;29;45396;-81
2021/07/10 07:23:11;;;;;;;;;6.00;6.00;;;;;20.48;58.94;101336.88;4774024;29;46491;-91
2021/07/10 07:25:38;;;;;;;;;6.00;6.00;;;;;20.51;59.32;101329.72;4748237;29;45475;-91
2021/07/10 07:28:07;;;;;;;;;5.33;4.00;;;;;20.60;59.64;101343.81;4762311;29;45402;-90
2021/07/10 07:30:34;;;;;;;;;5.33;5.33;;;;;20.53;59.89;101330.59;4771502;29;45227;-90
2021/07/10 07:32:59;;;;;;;;;4.33;4.33;;;;;20.52;59.47;101332.38;4791439;29;47023;-91
2021/07/10 07:35:30;;;;;;;;;3.33;3.00;;;;;20.59;59.39;101331.38;4779542;29;44765;-88
2021/07/10 07:37:55;;;;;;;;;6.00;4.00;;;;;20.56;59.17;101325.22;4775254;29;45479;-91
2021/07/10 07:40:31;;;;;;;;;;;;;;;;;;;;;
2021/07/10 07:42:57;;;;;;;;;7.00;4.00;;;;;20.53;59.02;101328.81;4788263;29;74453;-90
2021/07/10 07:45:28;;;;;;;;;8.00;5.00;;;;;20.50;58.75;101323.50;4762165;29;45744;-91
2021/07/10 07:48:08;;;;;;;;;5.67;4.33;;;;;20.53;59.00;101335.94;4760102;29;45419;-88
2021/07/10 07:50:37;;;;;;;;;8.00;6.00;;;;;20.43;59.72;101316.50;4776005;29;45267;-90
2021/07/10 07:53:02;;;;;;;;;7.67;7.00;;;;;20.56;59.35;101333.22;4762406;29;48444;-88
2021/07/10 07:55:28;;;;;;;;;4.33;4.33;;;;;20.48;58.63;101326.19;4774080;29;45378;-88
2021/07/10 07:57:53;;;;;;;;;6.00;6.00;;;;;20.38;59.13;101311.22;4757831;29;45389;-89
2021/07/10 08:00:22;;;;;;;;;6.00;5.00;;;;;20.46;59.13;101330.69;4757317;29;45501;-89
2021/07/10 08:02:50;;;;;;;;;6.00;5.00;;;;;20.47;58.56;101328.91;4772246;29;48382;-89
2021/07/10 08:05:16;;;;;;;;;5.00;5.00;;;;;20.48;57.92;101320.84;4772083;29;45283;-88
2021/07/10 08:07:42;;;;;;;;;3.33;3.33;;;;;20.49;58.35;101327.09;4742812;29;45467;-87
2021/07/10 08:10:12;;;;;;;;;5.00;4.00;;;;;20.55;59.00;101331.44;4774082;29;45438;-89
2021/07/10 08:12:38;;;;;;;;;5.00;5.00;;;;;20.59;58.12;101339.41;4757259;29;47627;-89
2021/07/10 08:15:06;;;;;;;;;5.00;5.00;;;;;20.49;57.77;101316.41;4773441;29;45206;-88
2021/07/10 08:17:32;;;;;;;;;4.00;4.00;;;;;20.59;57.43;101327.81;4773238;29;45421;-89
2021/07/10 08:19:57;;;;;;;;;4.00;4.00;;;;;20.50;57.68;101314.59;4773679;29;45368;-89
2021/07/10 08:22:23;;;;;;;;;6.00;5.00;;;;;20.48;57.13;101310.16;4772150;29;48503;-88
2021/07/10 08:24:48;;;;;;;;;3.33;3.33;;;;;20.57;56.88;101329.63;4757186;29;45621;-88
2021/07/10 08:27:14;;;;;;;;;6.00;5.00;;;;;20.51;56.90;101316.38;4757115;29;45435;-88
2021/07/10 08:29:40;;;;;;;;;6.00;5.00;;;;;20.52;57.53;101305.66;4773309;29;45355;-89
2021/07/10 08:32:06;;;;;;;;;5.33;5.33;;;;;20.51;56.94;101306.56;4757345;29;46268;-89
2021/07/10 08:34:32;;;;;;;;;4.33;3.67;;;;;20.64;57.95;101320.63;4772049;29;45297;-90
2021/07/10 08:37:00;;;;;;;;;4.00;3.00;;;;;20.54;56.69;101298.50;4773363;29;45311;-89
2021/07/10 08:39:25;;;;;;;;;5.00;4.00;;;;;20.65;57.14;101303.69;4757361;29;45367;-88
2021/07/10 08:41:50;;;;;;;;;5.33;5.00;;;;;20.56;56.03;101288.69;4756772;29;48064;-89
2021/07/10 08:44:16;;;;;;;;;5.00;3.67;;;;;20.64;56.44;101299.25;4773595;29;45412;-90
2021/07/10 08:46:46;;;;;;;;;6.00;4.00;;;;;20.58;55.65;101294.03;4775070;29;45432;-90
2021/07/10 08:49:15;;;;;;;;;3.00;3.00;;;;;20.68;55.05;101310.78;4757173;29;45374;-83
2021/07/10 08:51:44;;;;;;;;;3.67;3.67;;;;;20.68;54.82;101314.34;4772184;29;45287;-82
2021/07/10 08:54:10;;;;;;;;;4.00;4.00;;;;;20.75;55.16;101324.91;4772138;29;45393;-81
2021/07/10 08:56:35;;;;;;;;;2.00;2.00;;;;;20.66;55.73;101321.50;4756152;29;45394;-82
2021/07/10 08:59:01;;;;;;;;;3.00;3.00;;;;;20.77;54.09;101336.47;4771075;29;45601;-81
2021/07/10 09:01:41;;;;;;;;;2.00;2.00;;;;;20.65;54.92;101322.38;4776735;29;46450;-90
2021/07/10 09:04:07;;;;;;;;;3.00;3.00;;;;;20.78;55.35;101344.44;4763075;29;45575;-86
2021/07/10 09:06:33;;;;;;;;;5.67;5.00;;;;;20.68;56.15;101329.47;4772459;29;45315;-85
2021/07/10 09:09:54;;;;;;;;;;;;;;;;;;;;;
2021/07/10 09:12:44;;;;;;;;;5.00;4.00;;;;;20.61;56.65;101331.34;4780424;29;75094;-92
2021/07/10 09:15:19;;;;;;;;;4.00;3.00;;;;;20.74;57.04;101355.19;4756983;29;45455;-82
2021/07/10 09:17:46;;;;;;;;;3.00;3.00;;;;;20.66;56.67;101348.19;4755390;29;45615;-81
2021/07/10 09:20:23;;;;;;;;;3.33;3.00;;;;;20.66;57.54;101347.31;4772115;29;45241;-81
2021/07/10 09:22:49;;;;;;;;;5.00;4.00;;;;;20.62;58.33;101353.59;4771824;29;45245;-80
2021/07/10 09:25:26;;;;;;;;;3.00;3.00;;;;;20.57;57.89;101348.31;4771441;29;45247;-82
2021/07/10 09:27:53;;;;;;;;;2.33;2.33;;;;;20.52;56.78;101347.53;4771967;29;45463;-81
2021/07/10 09:30:35;;;;;;;;;4.00;3.00;;;;;20.47;57.13;101343.09;4771762;29;45424;-81
2021/07/10 09:33:16;;;;;;;;;2.00;2.00;;;;;20.42;56.87;101333.41;4771560;29;46499;-81
2021/07/10 09:36:00;;;;;;;;;4.33;3.67;;;;;20.36;57.46;101334.38;4771749;29;45341;-82
2021/07/10 09:38:29;;;;;;;;;2.00;2.00;;;;;20.32;58.19;101332.66;4771915;29;45345;-82
2021/07/10 09:40:59;;;;;;;;;3.00;2.00;;;;;20.26;57.31;101322.97;4771825;29;45351;-82
2021/07/10 09:43:27;;;;;;;;;3.00;3.00;;;;;20.21;58.07;101328.34;4771630;29;46262;-82
2021/07/10 09:45:52;;;;;;;;;4.33;2.33;;;;;20.18;57.95;101328.38;4771691;29;45270;-82
2021/07/10 09:48:18;;;;;;;;;2.00;2.00;;;;;20.17;58.27;101313.28;4771841;29;45298;-81
2021/07/10 09:50:43;;;;;;;;;3.33;3.33;;;;;20.15;58.48;101298.19;4771947;29;45242;-82
2021/07/10 09:53:23;;;;;;;;;3.00;2.00;;;;;20.12;58.60;101302.66;4755519;29;46337;-82
2021/07/10 09:55:52;;;;;;;;;4.33;2.00;;;;;20.10;57.70;101315.16;4771374;29;45398;-82
2021/07/10 09:58:31;;;;;;;;;1.00;1.00;;;;;20.06;57.67;101317.84;4771497;29;45295;-82
2021/07/10 10:00:57;;;;;;;;;2.00;2.00;;;;;20.06;57.88;101323.16;4771786;29;45420;-82
2021/07/10 10:03:32;;;;;;;;;2.00;2.00;;;;;20.06;59.39;101323.16;4771507;29;46089;-82
2021/07/10 10:06:17;;;;;;;;;2.00;2.00;;;;;20.04;58.60;101320.53;4771177;29;45396;-82
2021/07/10 10:08:45;;;;;;;;;2.00;2.00;;;;;20.00;58.74;101302.78;4771610;29;45555;-83
2021/07/10 10:11:11;;;;;;;;;2.00;2.00;;;;;20.02;59.05;101295.66;4771523;29;45294;-82
2021/07/10 10:13:36;;;;;;;;;2.00;2.00;;;;;20.00;60.14;101293.00;4771221;29;45372;-81
2021/07/10 10:16:14;;;;;;;;;2.00;2.00;;;;;20.00;58.69;101297.47;4771091;29;45535;-82
2021/07/10 10:18:42;;;;;;;;;2.00;2.00;;;;;19.99;59.29;101298.34;4771136;29;45228;-82
2021/07/10 10:21:08;;;;;;;;;2.00;2.00;;;;;19.96;59.81;101307.31;4771515;29;45459;-81
2021/07/10 10:23:34;;;;;;;;;2.00;2.00;;;;;19.96;59.63;101307.31;4771283;29;46160;-82
2021/07/10 10:26:00;;;;;;;;;3.00;3.00;;;;;19.94;58.48;101298.44;4771243;29;45604;-81
2021/07/10 10:28:27;;;;;;;;;4.00;2.33;;;;;19.95;59.71;101308.19;4771326;29;45365;-82
2021/07/10 10:30:55;;;;;;;;;5.00;4.00;;;;;19.97;59.81;101309.03;4771451;29;45535;-82
2021/07/10 10:33:22;;;;;;;;;4.00;3.00;;;;;20.00;59.92;101305.47;4770752;29;46092;-82
2021/07/10 10:35:50;;;;;;;;;2.00;2.00;;;;;20.01;58.88;101302.78;4771076;29;45360;-83
2021/07/10 10:38:16;;;;;;;;;3.00;3.00;;;;;20.02;59.79;101296.53;4772979;29;45453;-82
2021/07/10 10:40:43;;;;;;;;;4.00;4.00;;;;;20.02;60.07;101287.66;4774303;29;45227;-82
2021/07/10 10:43:13;;;;;;;;;3.00;3.00;;;;;20.10;60.71;101292.91;4773806;29;45311;-83
2021/07/10 10:45:40;;;;;;;;;3.33;3.33;;;;;20.16;60.67;101287.47;4773997;29;45332;-82
2021/07/10 10:48:06;;;;;;;;;6.67;5.00;;;;;20.22;60.15;101287.41;4773859;29;45409;-83
2021/07/10 10:50:41;;;;;;;;;3.00;3.00;;;;;20.24;60.87;101282.91;4774359;29;45522;-82
2021/07/10 10:53:19;;;;;;;;;3.33;3.33;;;;;20.34;60.26;101294.38;4773758;29;45388;-81
2021/07/10 10:55:45;;;;;;;;;2.67;2.67;;;;;20.30;60.16;101276.63;4773966;29;45248;-82
2021/07/10 10:58:16;;;;;;;;;5.00;2.00;;;;;20.42;59.40;101293.34;4773784;29;45232;-82
2021/07/10 11:00:44;;;;;;;;;4.67;3.00;;;;;20.44;59.42;101286.19;4774307;29;45215;-82
2021/07/10 11:03:15;;;;;;;;;3.00;3.00;;;;;20.45;60.04;101291.50;4773704;29;46315;-82
2021/07/10 11:05:46;;;;;;;;;3.00;2.00;;;;;20.46;59.12;101290.63;4773657;29;45415;-83
2021/07/10 11:08:18;;;;;;;;;3.00;2.00;;;;;20.48;58.68;101293.25;4773865;29;45341;-83
2021/07/10 11:10:46;;;;;;;;;2.00;2.00;;;;;20.52;58.56;101286.09;4774108;29;45517;-83
2021/07/10 11:13:41;;;;;;;;;2.00;2.00;;;;;20.54;57.52;101290.50;4773426;29;46278;-83
2021/07/10 11:16:11;;;;;;;;;2.33;2.33;;;;;20.59;58.28;101295.78;4773560;29;45281;-83
2021/07/10 11:18:54;;;;;;;;;3.67;1.00;;;;;20.63;57.09;101296.59;4773510;29;45317;-84
2021/07/10 11:21:31;;;;;;;;;2.00;2.00;;;;;20.64;58.14;101293.03;4773915;29;45566;-83
2021/07/10 11:26:55;;;;;;;;;2.00;2.00;;;;;20.68;58.39;101287.63;4773574;29;45288;-83
2021/07/10 11:29:29;;;;;;;;;2.00;2.00;;;;;20.66;58.15;101289.44;4773699;29;45319;-83
2021/07/10 11:32:15;;;;;;;;;3.67;2.33;;;;;20.63;58.05;101289.47;4773642;29;45371;-83
2021/07/10 11:34:48;;;;;;;;;4.00;3.00;;;;;20.66;57.20;101293.88;4773274;29;46645;-83
2021/07/10 11:37:19;;;;;;;;;2.33;2.33;;;;;20.67;58.22;101290.28;4773474;29;45218;-83
2021/07/10 11:40:07;;;;;;;;;3.33;2.67;;;;;20.69;57.87;101291.16;4789979;29;45364;-92
2021/07/10 11:42:42;;;;;;;;;2.00;2.00;;;;;20.70;58.38;101291.16;4771608;29;45578;-92
2021/07/10 11:45:26;;;;;;;;;4.00;3.00;;;;;20.69;58.17;101278.69;4758865;29;48246;-90
2021/07/10 11:48:00;;;;;;;;;3.00;3.00;;;;;20.70;57.46;101287.59;4758368;29;45291;-92
2021/07/10 11:50:30;;;;;;;;;5.00;2.67;;;;;20.63;57.48;101269.88;4758508;29;45424;-91
2021/07/10 11:53:11;;;;;;;;;3.67;2.00;;;;;20.74;57.67;101293.75;4774471;29;45246;-91
2021/07/10 11:55:44;;;;;;;;;2.00;2.00;;;;;20.62;57.54;101269.03;4760088;29;48201;-90
2021/07/10 11:58:14;;;;;;;;;3.33;3.00;;;;;20.58;57.98;101259.31;4761936;29;45429;-91
2021/07/10 12:00:41;;;;;;;;;4.33;3.00;;;;;20.73;57.79;101287.53;4785395;29;45282;-90
2021/07/10 12:03:21;;;;;;;;;3.00;3.00;;;;;20.72;58.51;101275.09;4756956;29;45353;-82
2021/07/10 12:05:48;;;;;;;;;3.00;3.00;;;;;20.74;58.22;101286.63;4772763;29;46061;-83
2021/07/10 12:08:14;;;;;;;;;6.00;4.00;;;;;20.71;58.47;101273.31;4773219;29;45267;-83
2021/07/10 12:10:43;;;;;;;;;2.00;2.00;;;;;20.75;58.35;101282.19;4756784;29;45420;-83
2021/07/10 12:13:21;;;;;;;;;3.00;2.00;;;;;20.73;58.16;101281.31;4773082;29;45399;-83
2021/07/10 12:15:53;;;;;;;;;2.00;2.00;;;;;20.76;58.36;101281.25;4772545;29;46266;-83
2021/07/10 12:18:22;;;;;;;;;2.00;2.00;;;;;20.75;57.18;101279.50;4772345;29;45513;-83
2021/07/10 12:20:56;;;;;;;;;3.00;3.00;;;;;20.77;57.76;101283.03;4772827;29;45373;-83
2021/07/10 12:23:25;;;;;;;;;4.00;3.67;;;;;20.69;58.53;101260.00;4772900;29;45221;-83
2021/07/10 12:25:57;;;;;;;;;3.00;3.00;;;;;20.82;58.20;101274.03;4772457;29;46338;-83
2021/07/10 12:28:30;;;;;;;;;4.00;2.00;;;;;20.87;57.78;101276.63;4772614;29;45488;-84
2021/07/10 12:30:57;;;;;;;;;4.33;3.33;;;;;20.91;58.50;101274.78;4772479;29;45626;-83
2021/07/10 12:33:39;;;;;;;;;3.00;3.00;;;;;20.92;58.06;101266.72;4772678;29;45439;-83
2021/07/10 12:36:10;;;;;;;;;3.00;3.00;;;;;20.96;58.08;101272.91;4772314;29;46623;-85
2021/07/10 12:38:51;;;;;;;;;3.00;3.00;;;;;21.00;58.41;101266.66;4772828;29;45316;-84
2021/07/10 12:41:27;;;;;;;;;4.00;4.00;;;;;21.11;59.37;101265.56;4772739;29;45361;-83
2021/07/10 12:43:54;;;;;;;;;5.00;3.33;;;;;21.16;59.38;101251.19;4773111;29;45342;-83
2021/07/10 12:46:20;;;;;;;;;2.00;2.00;;;;;21.25;59.03;101265.28;4789134;29;47870;-82
2021/07/10 12:48:47;;;;;;;;;5.00;4.33;;;;;21.27;58.70;101253.66;4791649;29;44607;-83
2021/07/10 12:51:13;;;;;;;;;3.00;3.00;;;;;21.26;58.63;101253.66;4792570;29;44775;-84
2021/07/10 12:53:43;;;;;;;;;4.00;3.67;;;;;21.29;59.18;101261.66;4784218;29;45295;-83
2021/07/10 12:56:41;;;;;;;;;4.00;2.00;;;;;21.28;58.38;101251.84;4773747;29;45324;-83
2021/07/10 12:59:07;;;;;;;;;4.67;4.00;;;;;21.32;58.55;101258.03;4772931;29;45360;-84
2021/07/10 13:01:33;;;;;;;;;4.67;3.33;;;;;21.32;58.25;101266.06;4771933;29;45306;-84
2021/07/10 13:03:58;;;;;;;;;4.67;4.67;;;;;21.30;58.25;101260.72;4772369;29;45354;-83
2021/07/10 13:06:24;;;;;;;;;3.00;3.00;;;;;21.28;58.96;101258.09;4772109;29;45496;-83
2021/07/10 13:08:55;;;;;;;;;4.00;4.00;;;;;21.31;58.02;101262.50;4771942;29;45373;-82
2021/07/10 13:11:22;;;;;;;;;3.00;3.00;;;;;21.36;57.94;101257.06;4772624;29;45251;-83
2021/07/10 13:14:06;;;;;;;;;3.00;3.00;;;;;21.38;57.79;101256.09;4772313;29;45339;-83
2021/07/10 13:16:33;;;;;;;;;5.33;3.67;;;;;21.39;57.80;101247.19;4771863;29;46173;-82
2021/07/10 13:19:00;;;;;;;;;3.33;3.33;;;;;21.51;57.79;101253.22;4770707;29;45443;-83
2021/07/10 13:21:28;;;;;;;;;7.00;5.00;;;;;21.60;57.83;101246.78;4772246;29;45350;-83
2021/07/10 13:24:02;;;;;;;;;4.00;4.00;;;;;21.71;57.90;101244.75;4772410;29;45504;-83
2021/07/10 13:26:42;;;;;;;;;4.00;3.00;;;;;21.81;57.65;101233.84;4771977;29;46222;-83
2021/07/10 13:29:16;;;;;;;;;4.33;4.00;;;;;21.84;56.71;101240.06;4771835;29;45301;-83
2021/07/10 13:31:59;;;;;;;;;4.00;4.00;;;;;21.88;56.54;101232.84;4771752;29;45373;-83
2021/07/10 13:34:26;;;;;;;;;4.00;4.00;;;;;21.88;56.40;101231.97;4772176;29;45370;-83
2021/07/10 13:36:53;;;;;;;;;2.33;2.33;;;;;21.92;56.29;101236.31;4771940;29;45341;-83
2021/07/10 13:39:23;;;;;;;;;6.00;4.33;;;;;22.02;56.86;101242.38;4771707;29;45765;-83
2021/07/10 13:41:53;;;;;;;;;5.33;3.00;;;;;22.07;56.74;101230.63;4771680;29;45386;-83
2021/07/10 13:44:45;;;;;;;;;2.67;2.67;;;;;22.12;55.83;101240.34;4771972;29;45456;-83
2021/07/10 13:47:15;;;;;;;;;2.00;2.00;;;;;22.09;55.14;101250.22;4771587;29;47240;-83
2021/07/10 13:49:48;;;;;;;;;3.00;3.00;;;;;22.07;54.49;101243.13;4771563;29;45438;-83
2021/07/10 13:52:13;;;;;;;;;4.00;2.33;;;;;22.06;54.37;101244.91;4771706;29;45367;-83
2021/07/10 13:54:59;;;;;;;;;2.00;2.00;;;;;22.06;54.39;101244.06;4771885;29;45493;-83
2021/07/10 13:57:25;;;;;;;;;3.33;3.00;;;;;22.06;53.96;101241.38;4771646;29;46969;-83
2021/07/10 13:59:59;;;;;;;;;4.33;3.00;;;;;22.02;54.42;101248.59;4771512;29;45312;-83
2021/07/10 14:02:27;;;;;;;;;1.00;1.00;;;;;21.99;53.72;101243.31;4771927;29;45394;-84
2021/07/10 14:05:04;;;;;;;;;3.00;3.00;;;;;21.96;52.87;101229.97;4771746;29;45246;-84
2021/07/10 14:07:31;;;;;;;;;2.00;2.00;;;;;21.99;53.38;101246.00;4771156;29;46198;-84
2021/07/10 14:09:56;;;;;;;;;2.00;1.33;;;;;21.96;53.09;101228.19;4771576;29;45465;-84
2021/07/10 14:12:22;;;;;;;;;2.00;2.00;;;;;21.95;52.86;101231.81;4773928;29;45390;-85
2021/07/10 14:14:48;;;;;;;;;2.67;2.33;;;;;21.89;53.02;101231.94;4774855;29;45327;-84
2021/07/10 14:17:13;;;;;;;;;1.33;1.33;;;;;21.90;52.80;101228.34;4758070;29;46835;-83
2021/07/10 14:19:38;;;;;;;;;3.67;2.00;;;;;21.90;53.16;101222.09;4774569;29;45392;-84
2021/07/10 14:22:04;;;;;;;;;2.00;2.00;;;;;21.85;53.11;101209.69;4774474;29;45318;-84
2021/07/10 14:24:29;;;;;;;;;2.67;2.00;;;;;21.88;52.64;101218.56;4774918;29;45306;-84
2021/07/10 14:26:55;;;;;;;;;2.00;2.00;;;;;21.81;52.66;101205.31;4774350;29;46093;-84
2021/07/10 14:29:20;;;;;;;;;1.33;1.33;;;;;21.84;53.03;101224.00;4774551;29;45367;-84
2021/07/10 14:31:45;;;;;;;;;1.33;1.33;;;;;21.75;53.22;101208.13;4774651;29;45310;-84
2021/07/10 14:34:11;;;;;;;;;2.00;2.00;;;;;21.81;52.89;101223.13;4774575;29;45347;-84
2021/07/10 14:36:36;;;;;;;;;3.00;2.33;;;;;21.78;52.58;101221.44;4774353;29;46073;-84
2021/07/10 14:39:07;;;;;;;;;3.67;3.00;;;;;21.73;52.83;101215.28;4777263;29;45496;-92
2021/07/10 14:41:32;;;;;;;;;2.00;2.00;;;;;21.68;52.46;101206.50;4780179;29;45497;-90
2021/07/10 14:43:58;;;;;;;;;3.00;1.33;;;;;21.57;52.56;101194.25;4760382;29;45637;-91
2021/07/10 14:46:24;;;;;;;;;2.67;2.67;;;;;21.59;52.56;101195.09;4776517;29;46350;-92
2021/07/10 14:48:59;;;;;;;;;;;;;;;;;;;;;
2021/07/10 14:51:39;;;;;;;;;2.00;2.00;;;;;21.64;52.07;101201.19;4776616;29;68990;-90
2021/07/10 14:54:07;;;;;;;;;2.00;2.00;;;;;21.59;51.62;101205.78;4777006;29;45236;-92
2021/07/10 14:56:42;;;;;;;;;;;;;;;;;;;;;
2021/07/10 14:59:09;;;;;;;;;2.00;1.00;;;;;21.45;52.67;101199.84;4774991;29;72939;-91
2021/07/10 15:01:36;;;;;;;;;1.67;1.67;;;;;21.37;53.26;101181.28;4776931;29;45490;-90
2021/07/10 15:04:01;;;;;;;;;2.00;2.00;;;;;21.48;54.20;101202.44;4777380;29;45352;-89
2021/07/10 15:06:28;;;;;;;;;3.00;3.00;;;;;21.43;54.30;101201.69;4778884;29;45368;-92
2021/07/10 15:08:56;;;;;;;;;2.00;2.00;;;;;21.48;54.27;101205.13;4774816;29;45286;-93
2021/07/10 15:11:46;;;;;;;;;2.00;1.00;;;;;21.45;54.15;101205.19;4760136;29;45300;-93
2021/07/10 15:14:20;;;;;;;;;1.00;1.00;;;;;21.47;55.04;101214.06;4774582;29;45382;-92
2021/07/10 15:16:48;;;;;;;;;3.00;2.00;;;;;21.37;55.73;101191.97;4775637;29;46147;-91
2021/07/10 15:19:17;;;;;;;;;3.33;2.00;;;;;21.35;54.85;101192.00;4760001;29;45432;-92
2021/07/10 15:22:05;;;;;;;;;;;;;;;;;;;;;
2021/07/10 15:24:37;;;;;;;;;3.00;3.00;;;;;21.19;54.94;101194.13;4777669;29;64739;-92
2021/07/10 15:27:10;;;;;;;;;2.67;2.00;;;;;21.16;55.83;101194.16;4763896;29;48507;-91
2021/07/10 15:29:57;;;;;;;;;2.33;2.00;;;;;21.09;55.83;101195.22;4780737;29;45227;-92
2021/07/10 15:32:22;;;;;;;;;5.00;3.00;;;;;21.14;56.31;101207.56;4766897;29;45392;-81
2021/07/10 15:34:47;;;;;;;;;4.00;2.00;;;;;21.09;56.62;101204.09;4773649;29;45276;-82
2021/07/10 15:37:13;;;;;;;;;3.00;3.00;;;;;21.07;56.50;101213.06;4773470;29;45320;-81
2021/07/10 15:39:38;;;;;;;;;3.00;3.00;;;;;20.98;56.55;101203.44;4773252;29;45326;-81
2021/07/10 15:42:04;;;;;;;;;4.67;2.00;;;;;20.96;56.97;101207.88;4773318;29;45781;-81
2021/07/10 15:44:29;;;;;;;;;4.33;3.00;;;;;20.87;57.69;101188.44;4773692;29;45395;-81
2021/07/10 15:46:55;;;;;;;;;5.33;3.67;;;;;20.89;58.43;101197.31;4773705;29;45432;-80
2021/07/10 15:49:20;;;;;;;;;2.00;2.00;;;;;20.88;58.01;101200.00;4773622;29;45348;-80
2021/07/10 15:51:45;;;;;;;;;3.00;3.00;;;;;20.84;57.91;101188.50;4773639;29;45531;-81
2021/07/10 15:54:11;;;;;;;;;5.00;3.00;;;;;20.79;58.72;101199.25;4773588;29;45268;-81
2021/07/10 15:56:37;;;;;;;;;3.00;3.00;;;;;20.82;59.08;101204.56;4773048;29;46287;-81
2021/07/10 15:59:05;;;;;;;;;3.33;2.00;;;;;20.81;58.00;101192.09;4772988;29;45354;-81
2021/07/10 16:01:31;;;;;;;;;2.00;2.00;;;;;20.79;57.86;101193.06;4772968;29;45180;-81
2021/07/10 16:03:56;;;;;;;;;2.33;2.00;;;;;20.74;58.26;101195.81;4773251;29;45255;-81
2021/07/10 16:06:23;;;;;;;;;3.00;3.00;;;;;20.69;57.92;101190.53;4772928;29;45997;-81
2021/07/10 16:08:48;;;;;;;;;3.00;3.00;;;;;20.63;58.08;101187.97;4773029;29;45440;-81
2021/07/10 16:11:14;;;;;;;;;2.33;2.33;;;;;20.63;58.02;101189.75;4772855;29;45745;-81
2021/07/10 16:13:40;;;;;;;;;2.33;2.33;;;;;20.62;58.33;101191.56;4773491;29;45331;-81
2021/07/10 16:16:05;;;;;;;;;2.00;2.00;;;;;20.59;58.81;101189.81;4772898;29;46173;-81
2021/07/10 16:18:30;;;;;;;;;4.00;4.00;;;;;20.61;59.08;101181.78;4772911;29;45398;-80
2021/07/10 16:20:56;;;;;;;;;3.00;3.00;;;;;20.63;59.59;101197.78;4772979;29;45305;-82
2021/07/10 16:23:21;;;;;;;;;3.33;3.33;;;;;20.65;58.93;101195.94;4772968;29;45393;-81
2021/07/10 16:25:47;;;;;;;;;2.00;2.00;;;;;20.63;59.02;101190.66;4772643;29;46927;-83
2021/07/10 16:28:13;;;;;;;;;3.00;3.00;;;;;20.67;58.51;101197.69;4772537;29;45410;-81
2021/07/10 16:30:38;;;;;;;;;2.33;2.33;;;;;20.66;58.70;101195.94;4772941;29;45232;-81
2021/07/10 16:33:04;;;;;;;;;1.00;1.00;;;;;20.64;58.22;101192.41;4773153;29;45375;-82
2021/07/10 16:35:30;;;;;;;;;3.00;3.00;;;;;20.64;58.34;101194.19;4771661;29;46228;-81
2021/07/10 16:37:57;;;;;;;;;3.00;2.33;;;;;20.62;59.17;101202.25;4772593;29;45272;-85
2021/07/10 16:40:23;;;;;;;;;6.67;3.00;;;;;20.63;58.59;101197.78;4772523;29;45343;-82
2021/07/10 16:42:49;;;;;;;;;2.00;2.00;;;;;20.63;58.70;101195.09;4772399;29;45373;-83
2021/07/10 16:45:14;;;;;;;;;3.00;2.00;;;;;20.58;58.33;101187.19;4772484;29;46188;-83
2021/07/10 16:47:41;;;;;;;;;2.00;2.00;;;;;20.62;58.78;101194.25;4772488;29;45420;-83
2021/07/10 16:50:10;;;;;;;;;2.33;2.33;;;;;20.64;58.53;101192.41;4772419;29;45426;-84
2021/07/10 16:52:35;;;;;;;;;3.67;2.67;;;;;20.64;58.85;101195.09;4772665;29;45225;-83
2021/07/10 16:55:02;;;;;;;;;3.00;2.00;;;;;20.60;58.57;101185.38;4772221;29;46034;-83
2021/07/10 16:57:27;;;;;;;;;3.67;2.00;;;;;20.64;58.60;101195.09;4772170;29;45512;-83
2021/07/10 16:59:52;;;;;;;;;2.00;2.00;;;;;20.64;58.33;101191.53;4772291;29;45882;-83
2021/07/10 17:02:18;;;;;;;;;2.00;2.00;;;;;20.65;58.49;101194.16;4772522;29;45350;-83
2021/07/10 17:04:44;;;;;;;;;3.00;3.00;;;;;20.63;58.35;101190.66;4772163;29;46302;-83
2021/07/10 17:07:09;;;;;;;;;1.00;1.00;;;;;20.63;58.40;101184.41;4772268;29;45417;-83
2021/07/10 17:09:34;;;;;;;;;3.00;3.00;;;;;20.64;58.30;101200.44;4772311;29;45323;-82
2021/07/10 17:12:00;;;;;;;;;3.00;3.00;;;;;20.61;58.33;101197.81;4772337;29;45326;-82
2021/07/10 17:14:25;;;;;;;;;2.00;2.00;;;;;20.61;58.82;101195.13;4771767;29;45330;-82
2021/07/10 17:16:51;;;;;;;;;3.33;1.00;;;;;20.59;59.54;101211.19;4772209;29;45391;-81
2021/07/10 17:19:18;;;;;;;;;4.00;3.00;;;;;20.54;60.42;101207.69;4771959;29;45296;-82
2021/07/10 17:21:43;;;;;;;;;7.67;4.00;;;;;20.50;61.91;101208.66;4772276;29;45366;-83
2021/07/10 17:24:10;;;;;;;;;4.33;3.00;;;;;20.47;62.61;101200.72;4771841;29;45918;-82
2021/07/10 17:26:37;;;;;;;;;3.00;3.00;;;;;20.43;62.00;101199.88;4771956;29;45334;-82
2021/07/10 17:29:04;;;;;;;;;3.67;3.00;;;;;20.39;62.28;101192.81;4771874;29;45370;-82
2021/07/10 17:31:35;;;;;;;;;4.67;3.00;;;;;20.38;63.87;101201.75;4771989;29;45251;-82
2021/07/10 17:34:13;;;;;;;;;5.33;2.00;;;;;20.34;62.79;101194.69;4771710;29;46676;-82
2021/07/10 17:36:41;;;;;;;;;3.00;3.00;;;;;20.33;64.34;101203.59;4771819;29;45391;-82
2021/07/10 17:39:09;;;;;;;;;3.33;2.00;;;;;20.31;64.36;101211.63;4771817;29;45344;-83
2021/07/10 17:41:37;;;;;;;;;2.00;2.00;;;;;20.29;63.10;101208.09;4771827;29;45288;-83
2021/07/10 17:44:08;;;;;;;;;5.00;3.00;;;;;20.25;64.15;101212.63;4771654;29;46114;-83
2021/07/10 17:46:34;;;;;;;;;5.00;3.67;;;;;20.24;64.97;101218.00;4773106;29;45258;-82
2021/07/10 17:49:00;;;;;;;;;4.33;3.00;;;;;20.19;64.53;101218.06;4776287;29;45251;-81
2021/07/10 17:51:27;;;;;;;;;3.33;3.00;;;;;20.15;64.77;101227.00;4780270;29;45241;-81
2021/07/10 17:53:53;;;;;;;;;3.00;3.00;;;;;20.05;64.26;101209.34;4781815;29;46325;-82
2021/07/10 17:56:19;;;;;;;;;3.00;3.00;;;;;20.06;64.76;101216.44;4789575;29;44780;-81
2021/07/10 17:58:44;;;;;;;;;2.67;2.67;;;;;20.01;64.41;101222.72;4777177;29;44766;-82
2021/07/10 18:01:09;;;;;;;;;3.67;3.67;;;;;19.99;65.25;101223.63;4782047;29;45264;-81